Etusivu
METAR-TAF:

METAR-TAF

Lentoasemat :

Båtsfjord, Norja

Leveyspiiri: 70-38N, Pituuspiiri: 029-44E, korkeus merenpinnasta: 10 m

Tämänhetkinen sää

Tämä raportti tehtiin 47 minuuttia sitten, kello 10.50 UTC
Tuuli 22 kn lännestä
Lämpötila 0°C
Kosteus 74%
Ilmanpaine 1004 hPa
Näkyvyys: 5000 m
Hajanaisia pilviä 2000 ft:n korkeudessa
Hajonneita pilviä 3200 ft:n korkeudessa
heikkoja lumikuuroja

METAR: ENBS 291050Z 28022KT 9999 5000NE -SHSN SCT020 BKN032 M00/M04 Q1004

Aika: 13:37 (11:37 UTC)


TAF: puuttuu

Säähavainnot ja -ennusteet yli 4000 lentoasemalta (METAR- ja TAF-raportit).

Käytössä olevat sääasemat on merkitty karttaan keltaisilla ja punaisilla pisteillä.

Aseta hiiri pisteen päälle nähdäksesi sääaseman nimen.

Klikkaa sitten nähdäksesi säähavainnot ja -ennusteet.

Kartan vaihtaminen: klikkaa mustalla rastilla varustettuja vihreitä pisteitä, niin voit zoomata sisään; viivalla varustettua vihreää pistettä, niin voit zoomata ulos tai vihreitä nuolia, niin pääset viereisille kartoille.


METAR-TAF: